メインページ
METAR-TAF:

METAR-TAF

空港 :

石見空港

萩, 日本

緯度: 34-40N, 経度: 131-48E, 海抜: 54m

現時点の気象観測

当レポートは2時間7分前の10:00(UTC)に作成
北東の風 8kt、北/北東からの間で変化する
気温 17°C
湿度 77%
気圧 1017 hPa
視程10km以上
高度3000ftの雲はほとんどない
千切れ雲あり

METAR: RJOW 201000Z 05008KT 020V080 9999 FEW030 BKN/// 17/13 Q1017

時間: 21:07 (12:07 UTC)


TAF: 見つかりません

4,000以上の空港の気象観測と天気予報(METAR報とTAF報)

利用可能な観測所は地図上に黄色い丸と赤い丸で示す。

丸の上にカーソルを重ねると観測所名を参照できる。

次にクリックすると気象観測と天気予報を参照できる。

マップの切り替え:黒色「×」印の緑ボタンをクリックして拡大、「-」印の緑ボタンをクリックして縮小、緑色の三角印をクリックして隣りの地図に切り替え


METAR-TAF: